Time;durP1;ratioP1;P1;durP2;ratioP2;P2;SDS_P1;SDS_P2;PMS_P1;PMS_P2;Temp;Humidity;BMP_temperature;BMP_pressure;BME280_temperature;BME280_humidity;BME280_pressure;Samples;Min_cycle;Max_cycle;Signal;HPM_P1;HPM_P2
2023/03/10 00:01:24;;;;;;;20.00;3.45;;;;;;;;;;5020787;28;20048;-75
2023/03/10 00:03:51;;;;;;;22.60;3.10;;;;;;;;;;5029194;28;20037;-74
2023/03/10 00:06:18;;;;;;;24.27;3.92;;;;;;;;;;5034839;28;20021;-74
2023/03/10 00:08:44;;;;;;;25.40;3.42;;;;;;;;;;5043280;28;20102;-74
2023/03/10 00:11:11;;;;;;;24.27;4.03;;;;;;;;;;5019400;28;20505;-74
2023/03/10 00:13:37;;;;;;;14.50;3.42;;;;;;;;;;5019324;28;20033;-74
2023/03/10 00:16:03;;;;;;;15.32;3.58;;;;;;;;;;5020964;28;20035;-75
2023/03/10 00:18:29;;;;;;;11.65;2.55;;;;;;;;;;5038826;28;20025;-75
2023/03/10 00:20:55;;;;;;;16.73;3.08;;;;;;;;;;5028948;28;20041;-75
2023/03/10 00:23:22;;;;;;;13.60;3.30;;;;;;;;;;5043090;28;20036;-74
2023/03/10 00:25:55;;;;;;;14.65;3.40;;;;;;;;;;5043822;28;20052;-75
2023/03/10 00:28:21;;;;;;;13.60;1.90;;;;;;;;;;5056497;28;20025;-75
2023/03/10 00:31:01;;;;;;;13.50;2.28;;;;;;;;;;5039043;28;20029;-74
2023/03/10 00:33:32;;;;;;;9.05;1.90;;;;;;;;;;5021204;28;20133;-75
2023/03/10 00:36:01;;;;;;;8.73;1.77;;;;;;;;;;5039064;28;20029;-75
2023/03/10 00:38:28;;;;;;;7.57;1.38;;;;;;;;;;5029070;28;20065;-75
2023/03/10 00:40:58;;;;;;;11.07;2.65;;;;;;;;;;5022359;28;20037;-75
2023/03/10 00:43:24;;;;;;;10.55;1.90;;;;;;;;;;5041095;28;20587;-75
2023/03/10 00:45:50;;;;;;;10.63;2.15;;;;;;;;;;5037050;28;20028;-74
2023/03/10 00:48:16;;;;;;;12.93;2.92;;;;;;;;;;5039391;28;20498;-75
2023/03/10 00:50:42;;;;;;;8.90;2.10;;;;;;;;;;5058746;28;20041;-75
2023/03/10 00:53:08;;;;;;;15.43;3.03;;;;;;;;;;5041344;28;20022;-75
2023/03/10 00:55:34;;;;;;;17.25;2.78;;;;;;;;;;5021023;28;20041;-75
2023/03/10 00:58:01;;;;;;;14.43;3.28;;;;;;;;;;5053206;28;20040;-75
2023/03/10 01:00:27;;;;;;;16.05;3.58;;;;;;;;;;5050399;28;20484;-74
2023/03/10 01:02:53;;;;;;;18.58;3.88;;;;;;;;;;5035544;28;20044;-75
2023/03/10 01:05:19;;;;;;;19.80;3.88;;;;;;;;;;5038649;28;20029;-75
2023/03/10 01:07:45;;;;;;;20.50;4.13;;;;;;;;;;5054638;28;20040;-75
2023/03/10 01:10:12;;;;;;;23.13;4.05;;;;;;;;;;5036627;28;20030;-75
2023/03/10 01:12:38;;;;;;;30.73;5.38;;;;;;;;;;5054361;28;20035;-74
2023/03/10 01:15:04;;;;;;;40.17;6.72;;;;;;;;;;5040289;28;20033;-75
2023/03/10 01:17:31;;;;;;;37.13;5.28;;;;;;;;;;5026899;28;20457;-74
2023/03/10 01:19:57;;;;;;;36.15;6.00;;;;;;;;;;5032575;28;20033;-74
2023/03/10 01:22:23;;;;;;;37.95;6.38;;;;;;;;;;5043143;28;20454;-74
2023/03/10 01:24:50;;;;;;;44.05;8.02;;;;;;;;;;5036137;28;20036;-74
2023/03/10 01:27:16;;;;;;;57.45;9.57;;;;;;;;;;5000824;28;20034;-74
2023/03/10 01:29:42;;;;;;;47.22;8.13;;;;;;;;;;5052270;28;20036;-74
2023/03/10 01:32:08;;;;;;;56.78;8.30;;;;;;;;;;5040025;28;20405;-74
2023/03/10 01:34:35;;;;;;;46.65;8.18;;;;;;;;;;5017940;28;20030;-74
2023/03/10 01:37:01;;;;;;;46.97;7.90;;;;;;;;;;5035262;28;20033;-74
2023/03/10 01:39:27;;;;;;;41.25;7.05;;;;;;;;;;5035065;28;20393;-74
2023/03/10 01:41:53;;;;;;;33.55;6.00;;;;;;;;;;5049545;28;20092;-74
2023/03/10 01:44:20;;;;;;;26.70;5.78;;;;;;;;;;5035041;28;20061;-74
2023/03/10 01:46:48;;;;;;;27.50;4.82;;;;;;;;;;5050242;28;20033;-74
2023/03/10 01:49:21;;;;;;;25.63;3.78;;;;;;;;;;5033148;28;20553;-75
2023/03/10 01:51:50;;;;;;;32.13;7.35;;;;;;;;;;5040876;28;20036;-75
2023/03/10 01:54:18;;;;;;;25.85;5.03;;;;;;;;;;5039767;28;20040;-74
2023/03/10 01:56:45;;;;;;;32.17;5.32;;;;;;;;;;5016858;28;20425;-75
2023/03/10 01:59:13;;;;;;;30.25;6.45;;;;;;;;;;5017527;28;20061;-75
2023/03/10 02:01:39;;;;;;;42.33;7.90;;;;;;;;;;5050042;28;20060;-75
2023/03/10 02:04:13;;;;;;;65.93;8.38;;;;;;;;;;5049931;28;20036;-75
2023/03/10 02:06:40;;;;;;;35.53;6.65;;;;;;;;;;5017040;28;20026;-75
2023/03/10 02:09:08;;;;;;;35.83;6.15;;;;;;;;;;5016590;28;20125;-75
2023/03/10 02:11:34;;;;;;;36.25;6.20;;;;;;;;;;5050167;28;20073;-75
2023/03/10 02:14:03;;;;;;;38.88;5.63;;;;;;;;;;5049398;28;20025;-75
2023/03/10 02:16:29;;;;;;;47.08;6.90;;;;;;;;;;5016590;28;20025;-74
2023/03/10 02:18:55;;;;;;;33.30;5.43;;;;;;;;;;5034127;28;20033;-74
2023/03/10 02:21:40;;;;;;;43.33;6.05;;;;;;;;;;5034348;28;20037;-74
2023/03/10 02:24:16;;;;;;;28.92;5.28;;;;;;;;;;5032116;28;20036;-75
2023/03/10 02:26:48;;;;;;;31.48;4.53;;;;;;;;;;5014510;28;20053;-74
2023/03/10 02:29:23;;;;;;;36.90;5.00;;;;;;;;;;4996519;28;20516;-74
2023/03/10 02:31:50;;;;;;;37.85;4.80;;;;;;;;;;4996131;28;20065;-74
2023/03/10 02:34:16;;;;;;;34.03;5.53;;;;;;;;;;4996747;28;20050;-74
2023/03/10 02:36:42;;;;;;;40.60;5.88;;;;;;;;;;4996636;28;20230;-74
2023/03/10 02:39:10;;;;;;;32.22;5.72;;;;;;;;;;5009656;28;20056;-75
2023/03/10 02:41:37;;;;;;;39.42;5.78;;;;;;;;;;5016168;28;20064;-74
2023/03/10 02:44:06;;;;;;;40.92;6.80;;;;;;;;;;5015975;28;20037;-74
2023/03/10 02:46:32;;;;;;;36.80;8.27;;;;;;;;;;5027660;28;20032;-75
2023/03/10 02:48:59;;;;;;;54.35;9.40;;;;;;;;;;5015672;28;20381;-74
2023/03/10 02:51:34;;;;;;;51.67;8.13;;;;;;;;;;5015234;28;20052;-75
2023/03/10 02:54:07;;;;;;;43.53;7.28;;;;;;;;;;5048838;28;20064;-74
2023/03/10 02:56:34;;;;;;;40.13;7.15;;;;;;;;;;5048719;28;20426;-75
2023/03/10 02:59:00;;;;;;;44.13;9.65;;;;;;;;;;5015641;28;20105;-74
2023/03/10 03:01:28;;;;;;;52.53;9.05;;;;;;;;;;5033595;28;20037;-75
2023/03/10 03:03:55;;;;;;;46.25;7.13;;;;;;;;;;5015772;28;20490;-74
2023/03/10 03:06:22;;;;;;;52.58;7.80;;;;;;;;;;5049051;28;20037;-74
2023/03/10 03:08:48;;;;;;;37.85;6.78;;;;;;;;;;5015678;28;20124;-74
2023/03/10 03:11:17;;;;;;;24.88;5.25;;;;;;;;;;5047971;28;20041;-74
2023/03/10 03:13:43;;;;;;;36.03;7.18;;;;;;;;;;5049013;28;20039;-74
2023/03/10 03:16:10;;;;;;;35.20;5.63;;;;;;;;;;5015161;28;20033;-74
2023/03/10 03:18:38;;;;;;;27.52;5.47;;;;;;;;;;5015691;28;20044;-74
2023/03/10 03:21:06;;;;;;;37.25;5.88;;;;;;;;;;5015402;28;20040;-75
2023/03/10 03:23:33;;;;;;;35.65;6.70;;;;;;;;;;5015589;28;20544;-75
2023/03/10 03:26:00;;;;;;;35.38;6.45;;;;;;;;;;5015068;28;20063;-75
2023/03/10 03:28:26;;;;;;;48.70;8.00;;;;;;;;;;5048910;28;20441;-75
2023/03/10 03:30:52;;;;;;;34.30;5.72;;;;;;;;;;4995258;28;20065;-75
2023/03/10 03:33:19;;;;;;;29.05;4.82;;;;;;;;;;5012877;28;20132;-75
2023/03/10 03:35:45;;;;;;;21.15;5.70;;;;;;;;;;5012309;28;20058;-75
2023/03/10 03:38:13;;;;;;;28.02;4.03;;;;;;;;;;5040161;28;20061;-74
2023/03/10 03:40:39;;;;;;;30.88;4.68;;;;;;;;;;5034586;28;20033;-74
2023/03/10 03:43:07;;;;;;;32.15;4.60;;;;;;;;;;5050670;28;20040;-75
2023/03/10 03:45:35;;;;;;;24.98;4.63;;;;;;;;;;5019918;28;20053;-74
2023/03/10 03:48:02;;;;;;;18.85;4.57;;;;;;;;;;5014957;28;20030;-75
2023/03/10 03:50:31;;;;;;;40.35;6.03;;;;;;;;;;5014724;28;20037;-75
2023/03/10 03:53:03;;;;;;;30.15;5.75;;;;;;;;;;5014724;28;20156;-75
2023/03/10 03:55:30;;;;;;;34.75;5.72;;;;;;;;;;5032229;28;20501;-75
2023/03/10 03:57:57;;;;;;;31.27;5.72;;;;;;;;;;5015017;28;20065;-75
2023/03/10 04:00:24;;;;;;;24.98;5.88;;;;;;;;;;5029358;28;20082;-74
2023/03/10 04:02:57;;;;;;;37.88;6.35;;;;;;;;;;5034603;28;20031;-74
2023/03/10 04:05:23;;;;;;;26.52;5.80;;;;;;;;;;5034400;28;20027;-74
2023/03/10 04:07:50;;;;;;;49.25;6.50;;;;;;;;;;5034912;28;20021;-74
2023/03/10 04:10:19;;;;;;;25.08;4.68;;;;;;;;;;5029810;28;20033;-74
2023/03/10 04:12:45;;;;;;;24.75;4.60;;;;;;;;;;5048175;28;20140;-74
2023/03/10 04:15:12;;;;;;;26.88;5.45;;;;;;;;;;5047610;28;20187;-75
2023/03/10 04:17:38;;;;;;;22.50;5.25;;;;;;;;;;5032513;28;20033;-74
2023/03/10 04:20:07;;;;;;;26.73;5.05;;;;;;;;;;5032647;28;20390;-74
2023/03/10 04:22:34;;;;;;;40.22;6.60;;;;;;;;;;5014790;28;20104;-75
2023/03/10 04:25:00;;;;;;;26.17;5.30;;;;;;;;;;5044954;28;20083;-75
2023/03/10 04:27:26;;;;;;;31.77;6.35;;;;;;;;;;5034385;28;20025;-74
2023/03/10 04:29:53;;;;;;;42.95;7.82;;;;;;;;;;5034478;28;20036;-74
2023/03/10 04:32:19;;;;;;;31.23;6.47;;;;;;;;;;5034134;28;20484;-74
2023/03/10 04:34:46;;;;;;;41.90;5.55;;;;;;;;;;5052173;28;20029;-74
2023/03/10 04:37:12;;;;;;;40.08;6.05;;;;;;;;;;5034235;28;20079;-74
2023/03/10 04:39:38;;;;;;;23.52;4.22;;;;;;;;;;5013254;28;20045;-74
2023/03/10 04:42:05;;;;;;;36.95;6.63;;;;;;;;;;5007006;28;20447;-74
2023/03/10 04:44:32;;;;;;;28.50;4.72;;;;;;;;;;5030811;28;20436;-74
2023/03/10 04:47:01;;;;;;;28.95;5.47;;;;;;;;;;5006184;28;20481;-75
2023/03/10 04:49:28;;;;;;;31.88;6.18;;;;;;;;;;5012772;28;20029;-74
2023/03/10 04:51:54;;;;;;;27.15;5.95;;;;;;;;;;5010922;28;20061;-75
2023/03/10 04:54:21;;;;;;;35.30;5.15;;;;;;;;;;5004755;28;20033;-74
2023/03/10 04:56:47;;;;;;;41.60;6.13;;;;;;;;;;5004880;28;20108;-75
2023/03/10 04:59:13;;;;;;;30.75;5.28;;;;;;;;;;5008299;28;20034;-74
2023/03/10 05:01:39;;;;;;;30.40;5.68;;;;;;;;;;5006335;28;20038;-74
2023/03/10 05:04:06;;;;;;;40.30;6.80;;;;;;;;;;5005571;28;20052;-75
2023/03/10 05:06:33;;;;;;;27.85;5.80;;;;;;;;;;5010021;28;20067;-75
2023/03/10 05:09:25;;;;;;;30.00;4.55;;;;;;;;;;5020380;28;20081;-75
2023/03/10 05:11:52;;;;;;;21.98;4.40;;;;;;;;;;5041109;28;20108;-74
2023/03/10 05:14:18;;;;;;;26.23;5.00;;;;;;;;;;5006749;28;20049;-74
2023/03/10 05:16:47;;;;;;;21.35;5.05;;;;;;;;;;5006282;28;20029;-75
2023/03/10 05:19:13;;;;;;;22.75;4.20;;;;;;;;;;5039189;28;20038;-74
2023/03/10 05:21:39;;;;;;;26.50;4.95;;;;;;;;;;5037492;28;20037;-75
2023/03/10 05:24:06;;;;;;;32.88;5.60;;;;;;;;;;5023751;28;20036;-74
2023/03/10 05:26:33;;;;;;;27.58;4.32;;;;;;;;;;4993669;28;20022;-75
2023/03/10 05:28:59;;;;;;;25.33;3.70;;;;;;;;;;5005088;28;20516;-74
2023/03/10 05:31:37;;;;;;;20.40;4.28;;;;;;;;;;5010635;28;20041;-74
2023/03/10 05:34:09;;;;;;;31.30;4.63;;;;;;;;;;5007891;28;20358;-74
2023/03/10 05:36:36;;;;;;;21.65;4.35;;;;;;;;;;5015657;28;20034;-74
2023/03/10 05:39:05;;;;;;;17.63;3.97;;;;;;;;;;5015370;28;20040;-74
2023/03/10 05:41:34;;;;;;;25.65;4.97;;;;;;;;;;5015722;28;20492;-74
2023/03/10 05:44:01;;;;;;;26.42;3.67;;;;;;;;;;5016023;28;20029;-74
2023/03/10 05:46:27;;;;;;;20.20;4.15;;;;;;;;;;5035952;28;20025;-75
2023/03/10 05:48:57;;;;;;;25.33;4.50;;;;;;;;;;5015809;28;20025;-74
2023/03/10 05:51:23;;;;;;;23.95;4.25;;;;;;;;;;5015024;28;20455;-74
2023/03/10 05:53:50;;;;;;;17.55;3.60;;;;;;;;;;5004881;28;20041;-75
2023/03/10 05:56:21;;;;;;;24.63;3.50;;;;;;;;;;5005380;28;20116;-75
2023/03/10 05:58:52;;;;;;;22.02;4.45;;;;;;;;;;5013001;28;20444;-75
2023/03/10 06:01:23;;;;;;;28.63;4.10;;;;;;;;;;5030562;28;20496;-70
2023/03/10 06:03:49;;;;;;;22.75;3.90;;;;;;;;;;5026164;28;20033;-77
2023/03/10 06:06:15;;;;;;;27.65;3.20;;;;;;;;;;5031582;28;20025;-72
2023/03/10 06:08:41;;;;;;;13.98;3.22;;;;;;;;;;5047007;28;20021;-75
2023/03/10 06:11:08;;;;;;;18.20;3.85;;;;;;;;;;5032931;28;20432;-74
2023/03/10 06:13:35;;;;;;;22.52;3.63;;;;;;;;;;5015080;28;20087;-74
2023/03/10 06:16:02;;;;;;;26.83;4.32;;;;;;;;;;5031864;28;20045;-74
2023/03/10 06:18:28;;;;;;;16.65;3.25;;;;;;;;;;5032868;28;20033;-74
2023/03/10 06:20:54;;;;;;;23.88;5.32;;;;;;;;;;5031912;28;20040;-74
2023/03/10 06:23:20;;;;;;;22.30;4.15;;;;;;;;;;5032361;28;20026;-74
2023/03/10 06:25:59;;;;;;;22.08;4.47;;;;;;;;;;5032327;28;20029;-74
2023/03/10 06:28:26;;;;;;;22.15;4.47;;;;;;;;;;5030679;28;20032;-74
2023/03/10 06:30:55;;;;;;;23.50;4.28;;;;;;;;;;5032209;28;20029;-74
2023/03/10 06:33:22;;;;;;;24.08;4.80;;;;;;;;;;5040431;28;20060;-71
2023/03/10 06:35:48;;;;;;;23.73;3.75;;;;;;;;;;5042430;28;20045;-74
2023/03/10 06:38:14;;;;;;;20.33;3.22;;;;;;;;;;5042823;28;20033;-74
2023/03/10 06:40:40;;;;;;;25.75;3.53;;;;;;;;;;5033289;28;20029;-74
2023/03/10 06:43:06;;;;;;;27.55;4.35;;;;;;;;;;5032853;28;20030;-74
2023/03/10 06:45:32;;;;;;;23.88;4.95;;;;;;;;;;5033819;28;20033;-74
2023/03/10 06:47:58;;;;;;;22.65;4.55;;;;;;;;;;5032166;28;20053;-74
2023/03/10 06:50:31;;;;;;;;;;;;;;;;;;5014638;28;20617;-73
2023/03/10 06:52:57;;;;;;;18.75;3.13;;;;;;;;;;5032338;28;19920;-74
2023/03/10 06:55:23;;;;;;;11.90;2.83;;;;;;;;;;5032203;28;20434;-74
2023/03/10 06:57:49;;;;;;;24.98;3.72;;;;;;;;;;5031507;28;20040;-74
2023/03/10 07:00:17;;;;;;;17.13;4.07;;;;;;;;;;5037399;28;20041;-74
2023/03/10 07:02:43;;;;;;;24.55;4.03;;;;;;;;;;5035199;28;20065;-74
2023/03/10 07:05:10;;;;;;;20.33;3.20;;;;;;;;;;5033379;28;20519;-74
2023/03/10 07:07:37;;;;;;;22.75;4.15;;;;;;;;;;5030641;28;20026;-74
2023/03/10 07:10:03;;;;;;;23.88;4.22;;;;;;;;;;5040164;28;20033;-74
2023/03/10 07:12:29;;;;;;;26.88;3.80;;;;;;;;;;5035266;28;20025;-74
2023/03/10 07:14:55;;;;;;;15.63;3.78;;;;;;;;;;5017940;28;20084;-75
2023/03/10 07:17:21;;;;;;;17.15;4.28;;;;;;;;;;5014903;28;20038;-74
2023/03/10 07:19:47;;;;;;;15.15;3.83;;;;;;;;;;5014597;28;20450;-74
2023/03/10 07:22:14;;;;;;;19.05;3.30;;;;;;;;;;5045059;28;20083;-74
2023/03/10 07:24:40;;;;;;;22.05;3.22;;;;;;;;;;5024939;28;20025;-74
2023/03/10 07:27:06;;;;;;;28.38;4.57;;;;;;;;;;5052390;28;20022;-74
2023/03/10 07:29:32;;;;;;;28.77;3.78;;;;;;;;;;5034443;28;20041;-74
2023/03/10 07:31:58;;;;;;;20.25;3.22;;;;;;;;;;5017272;28;20040;-70
2023/03/10 07:34:25;;;;;;;18.17;3.40;;;;;;;;;;5034901;28;20082;-75
2023/03/10 07:36:51;;;;;;;21.33;3.90;;;;;;;;;;5045281;28;20048;-74
2023/03/10 07:39:17;;;;;;;20.35;3.80;;;;;;;;;;5033061;28;20057;-74
2023/03/10 07:41:43;;;;;;;20.38;3.60;;;;;;;;;;5040711;28;20071;-75
2023/03/10 07:44:09;;;;;;;22.88;3.40;;;;;;;;;;5045882;28;20024;-75
2023/03/10 07:46:35;;;;;;;21.00;2.50;;;;;;;;;;5029644;28;20123;-75
2023/03/10 07:49:03;;;;;;;15.00;3.67;;;;;;;;;;5036774;28;20025;-75
2023/03/10 07:51:32;;;;;;;10.32;2.97;;;;;;;;;;5031480;28;20060;-74
2023/03/10 07:53:59;;;;;;;17.60;2.90;;;;;;;;;;5030602;28;20063;-74
2023/03/10 07:56:25;;;;;;;17.88;3.38;;;;;;;;;;5044312;28;20032;-74
2023/03/10 07:58:51;;;;;;;14.25;3.38;;;;;;;;;;5016994;28;20113;-74
2023/03/10 08:01:22;;;;;;;19.00;3.10;;;;;;;;;;5031252;28;20025;-73
2023/03/10 08:03:48;;;;;;;22.55;3.83;;;;;;;;;;5033689;28;20048;-75
2023/03/10 08:06:34;;;;;;;15.60;2.50;;;;;;;;;;5032991;28;20025;-74
2023/03/10 08:09:00;;;;;;;23.98;4.20;;;;;;;;;;5023261;28;20104;-74
2023/03/10 08:11:26;;;;;;;19.20;3.40;;;;;;;;;;5034276;28;20112;-74
2023/03/10 08:13:52;;;;;;;20.25;3.67;;;;;;;;;;5029507;28;20509;-74
2023/03/10 08:16:20;;;;;;;18.08;3.38;;;;;;;;;;5029833;28;20483;-74
2023/03/10 08:18:46;;;;;;;21.95;3.42;;;;;;;;;;5033832;28;20049;-74
2023/03/10 08:21:12;;;;;;;15.77;3.17;;;;;;;;;;5035401;28;20036;-74
2023/03/10 08:23:38;;;;;;;12.60;2.72;;;;;;;;;;5030416;28;20143;-74
2023/03/10 08:26:08;;;;;;;21.85;4.35;;;;;;;;;;5028566;28;20088;-74
2023/03/10 08:28:37;;;;;;;16.98;4.13;;;;;;;;;;5025486;28;20018;-75
2023/03/10 08:31:21;;;;;;;13.80;2.90;;;;;;;;;;5035136;28;20048;-74
2023/03/10 08:33:48;;;;;;;14.65;3.30;;;;;;;;;;5036085;28;20038;-74
2023/03/10 08:36:16;;;;;;;19.67;3.00;;;;;;;;;;5033145;28;20036;-74
2023/03/10 08:38:43;;;;;;;14.52;2.85;;;;;;;;;;5037555;28;20034;-74
2023/03/10 08:41:12;;;;;;;19.92;3.78;;;;;;;;;;5036512;28;20422;-74
2023/03/10 08:43:38;;;;;;;16.05;3.90;;;;;;;;;;5017943;28;20028;-74
2023/03/10 08:46:05;;;;;;;16.05;2.88;;;;;;;;;;5035262;28;20032;-74
2023/03/10 08:48:31;;;;;;;14.13;2.47;;;;;;;;;;5033619;28;20025;-74
2023/03/10 08:50:57;;;;;;;15.18;3.03;;;;;;;;;;5029748;28;20052;-74
2023/03/10 08:53:23;;;;;;;21.80;4.68;;;;;;;;;;5035239;28;20034;-74
2023/03/10 08:55:49;;;;;;;12.02;3.28;;;;;;;;;;5045261;28;20025;-74
2023/03/10 08:58:16;;;;;;;18.27;3.25;;;;;;;;;;5037428;28;20033;-73
2023/03/10 09:00:42;;;;;;;13.50;3.10;;;;;;;;;;5043576;28;20033;-74
2023/03/10 09:03:13;;;;;;;22.48;2.75;;;;;;;;;;5034396;28;20033;-74
2023/03/10 09:05:39;;;;;;;18.73;2.38;;;;;;;;;;5030619;28;20064;-74
2023/03/10 09:08:06;;;;;;;16.67;2.70;;;;;;;;;;5017659;28;20378;-74
2023/03/10 09:10:33;;;;;;;14.48;3.15;;;;;;;;;;5036266;28;20045;-74
2023/03/10 09:12:59;;;;;;;15.18;2.50;;;;;;;;;;5038963;28;20112;-73
2023/03/10 09:15:26;;;;;;;12.00;2.05;;;;;;;;;;5035937;28;20040;-74
2023/03/10 09:17:52;;;;;;;12.70;2.22;;;;;;;;;;5035270;28;20088;-73
2023/03/10 09:20:21;;;;;;;15.02;2.72;;;;;;;;;;5034905;28;20029;-73
2023/03/10 09:22:48;;;;;;;15.10;3.03;;;;;;;;;;5009688;28;20041;-74
2023/03/10 09:25:14;;;;;;;25.77;2.63;;;;;;;;;;5033710;28;20385;-74
2023/03/10 09:27:40;;;;;;;22.55;2.95;;;;;;;;;;5037525;28;20038;-74
2023/03/10 09:30:06;;;;;;;18.77;2.95;;;;;;;;;;5041622;28;20047;-75
2023/03/10 09:32:32;;;;;;;15.35;2.38;;;;;;;;;;5031333;28;20045;-75
2023/03/10 09:34:58;;;;;;;15.40;3.08;;;;;;;;;;5045600;28;20064;-74
2023/03/10 09:37:24;;;;;;;20.67;3.65;;;;;;;;;;5013330;28;20034;-75
2023/03/10 09:39:51;;;;;;;10.90;2.42;;;;;;;;;;5034833;28;20025;-75
2023/03/10 09:42:17;;;;;;;9.88;1.52;;;;;;;;;;5026074;28;20029;-75
2023/03/10 09:45:02;;;;;;;12.02;1.83;;;;;;;;;;5032665;28;20432;-76
2023/03/10 09:47:41;;;;;;;15.38;2.22;;;;;;;;;;5031121;28;20028;-76
2023/03/10 09:50:33;;;;;;;11.20;2.05;;;;;;;;;;5032303;28;20044;-75
2023/03/10 09:53:18;;;;;;;12.02;2.55;;;;;;;;;;5026085;28;20175;-76
2023/03/10 09:55:45;;;;;;;9.20;2.20;;;;;;;;;;5017316;28;20053;-75
2023/03/10 09:58:23;;;;;;;12.85;2.67;;;;;;;;;;5021513;28;20509;-76
2023/03/10 10:00:49;;;;;;;13.52;2.47;;;;;;;;;;5033905;28;20121;-76
2023/03/10 10:03:23;;;;;;;11.57;2.53;;;;;;;;;;5041681;28;20040;-75
2023/03/10 10:05:51;;;;;;;13.02;2.22;;;;;;;;;;5025568;28;20037;-75
2023/03/10 10:08:22;;;;;;;16.05;2.03;;;;;;;;;;5024668;28;20033;-76
2023/03/10 10:10:51;;;;;;;8.65;1.85;;;;;;;;;;5030378;28;20125;-75
2023/03/10 10:13:17;;;;;;;11.48;1.92;;;;;;;;;;5032417;28;20033;-76
2023/03/10 10:15:46;;;;;;;12.18;2.50;;;;;;;;;;5032404;28;20029;-75
2023/03/10 10:18:14;;;;;;;12.98;2.38;;;;;;;;;;5035167;28;20034;-75
2023/03/10 10:20:43;;;;;;;10.93;2.67;;;;;;;;;;5032334;28;20034;-75
2023/03/10 10:23:31;;;;;;;11.88;2.47;;;;;;;;;;5014816;28;20025;-75
2023/03/10 10:26:00;;;;;;;15.70;2.15;;;;;;;;;;5013844;28;20036;-75
2023/03/10 10:28:32;;;;;;;12.15;2.70;;;;;;;;;;5032461;28;20060;-75
2023/03/10 10:31:11;;;;;;;21.33;5.68;;;;;;;;;;5032829;28;20098;-75
2023/03/10 10:33:56;;;;;;;14.38;3.35;;;;;;;;;;5014146;28;20056;-75
2023/03/10 10:36:24;;;;;;;10.35;1.92;;;;;;;;;;5033002;28;20073;-75
2023/03/10 10:38:51;;;;;;;10.65;1.75;;;;;;;;;;5029722;28;20028;-74
2023/03/10 10:41:20;;;;;;;15.48;3.38;;;;;;;;;;5028837;28;20396;-75
2023/03/10 10:43:47;;;;;;;12.35;1.90;;;;;;;;;;5013518;28;20025;-75
2023/03/10 10:46:14;;;;;;;14.93;2.42;;;;;;;;;;5033278;28;20025;-75
2023/03/10 10:48:45;;;;;;;13.57;2.17;;;;;;;;;;5033278;28;20026;-75
2023/03/10 10:51:27;;;;;;;11.43;2.20;;;;;;;;;;5029739;28;20029;-75
2023/03/10 10:53:54;;;;;;;12.32;2.72;;;;;;;;;;5032454;28;20112;-74
2023/03/10 10:56:21;;;;;;;13.60;2.13;;;;;;;;;;5030379;28;20025;-75
2023/03/10 10:59:02;;;;;;;7.82;1.73;;;;;;;;;;5039314;28;20029;-75
2023/03/10 11:01:45;;;;;;;13.70;2.30;;;;;;;;;;5025202;28;20048;-75
2023/03/10 11:04:12;;;;;;;9.02;1.80;;;;;;;;;;5030039;28;20072;-75
2023/03/10 11:06:38;;;;;;;18.70;2.63;;;;;;;;;;5024730;28;20030;-75
2023/03/10 11:09:07;;;;;;;22.42;3.10;;;;;;;;;;5044912;28;20061;-74
2023/03/10 11:11:52;;;;;;;13.75;2.20;;;;;;;;;;5033008;28;20102;-75
2023/03/10 11:14:56;;;;;;;9.18;1.75;;;;;;;;;;5014972;28;20041;-74
2023/03/10 11:17:41;;;;;;;11.07;2.15;;;;;;;;;;4991339;28;20034;-75
2023/03/10 11:20:40;;;;;;;7.10;1.92;;;;;;;;;;4991193;28;20134;-74
2023/03/10 11:23:09;;;;;;;9.45;1.58;;;;;;;;;;4971113;28;20149;-75
2023/03/10 11:25:49;;;;;;;14.30;2.08;;;;;;;;;;4978783;28;20031;-75
2023/03/10 11:28:15;;;;;;;11.60;2.55;;;;;;;;;;4991002;28;20074;-75
2023/03/10 11:30:48;;;;;;;11.80;2.05;;;;;;;;;;4991292;28;20034;-74
2023/03/10 11:33:21;;;;;;;10.55;2.05;;;;;;;;;;4990881;28;20054;-74
2023/03/10 11:35:50;;;;;;;9.65;1.83;;;;;;;;;;4991025;28;20039;-74
2023/03/10 11:38:16;;;;;;;16.75;2.25;;;;;;;;;;4990589;28;20062;-75
2023/03/10 11:40:52;;;;;;;16.75;1.63;;;;;;;;;;5001333;28;20040;-75
2023/03/10 11:43:39;;;;;;;10.32;2.42;;;;;;;;;;4992632;28;20038;-75
2023/03/10 11:46:12;;;;;;;13.73;1.80;;;;;;;;;;4996583;28;20037;-75
2023/03/10 11:48:40;;;;;;;21.23;2.38;;;;;;;;;;5020546;28;20493;-75
2023/03/10 11:51:10;;;;;;;12.05;2.13;;;;;;;;;;5030902;28;20083;-75
2023/03/10 11:53:39;;;;;;;7.22;1.73;;;;;;;;;;5032034;28;20038;-75
2023/03/10 11:56:06;;;;;;;12.60;2.08;;;;;;;;;;5031700;28;20366;-75
2023/03/10 11:58:35;;;;;;;12.10;1.98;;;;;;;;;;5027953;28;20029;-75
2023/03/10 12:01:01;;;;;;;7.72;1.52;;;;;;;;;;5030884;28;20041;-75
2023/03/10 12:03:38;;;;;;;16.35;2.20;;;;;;;;;;5031777;28;20480;-75
2023/03/10 12:06:05;;;;;;;12.80;2.00;;;;;;;;;;5030868;28;20033;-74
2023/03/10 12:08:34;;;;;;;11.60;2.17;;;;;;;;;;5039128;28;20029;-74
2023/03/10 12:11:02;;;;;;;9.05;1.50;;;;;;;;;;5031402;28;20049;-74
2023/03/10 12:13:31;;;;;;;9.57;2.30;;;;;;;;;;5037263;28;20021;-75
2023/03/10 12:15:59;;;;;;;15.52;1.65;;;;;;;;;;5028935;28;20030;-74
2023/03/10 12:18:25;;;;;;;11.25;1.92;;;;;;;;;;5034191;28;20095;-75
2023/03/10 12:21:10;;;;;;;10.38;2.30;;;;;;;;;;5014187;28;20049;-75
2023/03/10 12:23:41;;;;;;;10.05;2.08;;;;;;;;;;5031475;28;20030;-75
2023/03/10 12:26:07;;;;;;;18.13;1.98;;;;;;;;;;5031700;28;20025;-75
2023/03/10 12:28:33;;;;;;;16.38;3.38;;;;;;;;;;5041045;28;20064;-76
2023/03/10 12:31:02;;;;;;;17.10;2.63;;;;;;;;;;5031853;28;20370;-76
2023/03/10 12:33:43;;;;;;;9.00;2.00;;;;;;;;;;5038496;28;20049;-76
2023/03/10 12:36:28;;;;;;;13.77;2.58;;;;;;;;;;5031815;28;20035;-76
2023/03/10 12:38:59;;;;;;;21.10;2.25;;;;;;;;;;5021347;28;20550;-76
2023/03/10 12:41:27;;;;;;;11.75;2.08;;;;;;;;;;5031803;28;21608;-76
2023/03/10 12:44:00;;;;;;;8.00;1.83;;;;;;;;;;5031796;28;20108;-76
2023/03/10 12:46:59;;;;;;;11.60;2.08;;;;;;;;;;5045677;28;20032;-75
2023/03/10 12:49:27;;;;;;;7.82;1.90;;;;;;;;;;4987850;28;20045;-75
2023/03/10 12:52:09;;;;;;;7.85;1.63;;;;;;;;;;5037185;28;20504;-75
2023/03/10 12:54:41;;;;;;;12.27;2.13;;;;;;;;;;5021292;28;20037;-74
2023/03/10 12:57:21;;;;;;;9.48;1.70;;;;;;;;;;5024498;28;20018;-74
2023/03/10 12:59:51;;;;;;;5.35;1.75;;;;;;;;;;5030749;28;20083;-74
2023/03/10 13:02:23;;;;;;;9.82;1.50;;;;;;;;;;5024092;28;20112;-74
2023/03/10 13:04:50;;;;;;;3.88;1.30;;;;;;;;;;5031015;28;20045;-75
2023/03/10 13:07:17;;;;;;;5.63;1.20;;;;;;;;;;5011774;28;20022;-73
2023/03/10 13:09:45;;;;;;;2.92;0.85;;;;;;;;;;5031691;28;20025;-75
2023/03/10 13:12:18;;;;;;;4.45;0.80;;;;;;;;;;5030853;28;20501;-75
2023/03/10 13:14:44;;;;;;;4.68;0.90;;;;;;;;;;5030674;28;20034;-74
2023/03/10 13:17:22;;;;;;;2.17;1.02;;;;;;;;;;5034897;28;20036;-74
2023/03/10 13:19:58;;;;;;;2.17;1.17;;;;;;;;;;5026913;28;20371;-74
2023/03/10 13:22:24;;;;;;;6.88;1.58;;;;;;;;;;5034552;28;20087;-74
2023/03/10 13:24:57;;;;;;;8.75;2.67;;;;;;;;;;5028946;28;20028;-74
2023/03/10 13:27:27;;;;;;;5.18;1.75;;;;;;;;;;5026818;28;20428;-74
2023/03/10 13:29:58;;;;;;;8.98;1.80;;;;;;;;;;5029082;28;20069;-74
2023/03/10 13:32:25;;;;;;;8.82;1.88;;;;;;;;;;5018071;28;20111;-74
2023/03/10 13:34:51;;;;;;;4.70;1.50;;;;;;;;;;5024006;28;20410;-74
2023/03/10 13:37:17;;;;;;;6.78;1.48;;;;;;;;;;5026211;28;20039;-74
2023/03/10 13:39:43;;;;;;;6.53;1.90;;;;;;;;;;5022965;28;20026;-75
2023/03/10 13:42:23;;;;;;;4.53;1.55;;;;;;;;;;5020393;28;20486;-74
2023/03/10 13:44:50;;;;;;;13.93;1.92;;;;;;;;;;5026390;28;20037;-74
2023/03/10 13:47:21;;;;;;;12.25;2.05;;;;;;;;;;5021701;28;20044;-74
2023/03/10 13:49:48;;;;;;;11.82;2.92;;;;;;;;;;5024969;28;20025;-74
2023/03/10 13:52:17;;;;;;;6.32;1.27;;;;;;;;;;5028462;28;20049;-74
2023/03/10 13:54:43;;;;;;;6.15;1.05;;;;;;;;;;5020736;28;20050;-75
2023/03/10 13:57:09;;;;;;;4.43;2.78;;;;;;;;;;5037806;28;20550;-74
2023/03/10 13:59:36;;;;;;;5.15;1.55;;;;;;;;;;5029779;28;20104;-74
2023/03/10 14:02:03;;;;;;;6.05;1.35;;;;;;;;;;5033915;28;20076;-74
2023/03/10 14:04:41;;;;;;;6.50;1.73;;;;;;;;;;5035028;28;20029;-75
2023/03/10 14:07:24;;;;;;;5.03;1.38;;;;;;;;;;5035218;28;20025;-75
2023/03/10 14:10:02;;;;;;;10.23;4.18;;;;;;;;;;5041553;28;20378;-74
2023/03/10 14:12:35;;;;;;;5.30;2.08;;;;;;;;;;5012303;28;20060;-75
2023/03/10 14:15:10;;;;;;;5.18;1.98;;;;;;;;;;5030340;28;20033;-74
2023/03/10 14:17:37;;;;;;;5.93;1.40;;;;;;;;;;5015244;28;20117;-73
2023/03/10 14:20:05;;;;;;;5.90;1.40;;;;;;;;;;5029167;28;20048;-74
2023/03/10 14:22:34;;;;;;;7.05;1.42;;;;;;;;;;5021945;28;20073;-73
2023/03/10 14:25:02;;;;;;;5.85;2.42;;;;;;;;;;5022563;28;20109;-73
2023/03/10 14:27:28;;;;;;;9.63;2.38;;;;;;;;;;5033445;28;20026;-74
2023/03/10 14:29:55;;;;;;;5.60;2.67;;;;;;;;;;5041834;28;20510;-74
2023/03/10 14:32:22;;;;;;;7.47;1.67;;;;;;;;;;5032224;28;20053;-73
2023/03/10 14:34:48;;;;;;;4.07;2.00;;;;;;;;;;5021273;28;20429;-73
2023/03/10 14:37:15;;;;;;;5.70;1.33;;;;;;;;;;5024485;28;20052;-73
2023/03/10 14:39:41;;;;;;;4.88;1.63;;;;;;;;;;5024741;28;20033;-73
2023/03/10 14:42:16;;;;;;;7.63;1.90;;;;;;;;;;5029703;28;20036;-76
2023/03/10 14:44:42;;;;;;;5.25;1.30;;;;;;;;;;5034017;28;20025;-76